Terminal Aerodrome Forecast
Issued by NWS Duluth, MN

Home | Current Version | Previous Version | Text Only | Print | Product List | Glossary On
Versions: 1 2 3 4 5 6 7 8 9 10 11 12 13 14 15 16 17 18 19 20 21 22 23 24 25 26
000
FTUS43 KDLH 240500
TAFDLH
TAF
KDLH 240520Z 2406/2506 19006KT 4SM BR SCT003
      TEMPO 2406/2409 1/2SM FG BKN003
     FM240900 22005KT 3SM BR OVC003
      TEMPO 2409/2413 1SM BR OVC002
     FM241500 23005KT P6SM SKC
     FM242000 23010KT P6SM SCT250
     FM250100 23007KT P6SM SKC=

USA.gov is the U.S. government's official web portal to all federal, state and local government web resources and services.